Time;durP1;ratioP1;P1;durP2;ratioP2;P2;SDS_P1;SDS_P2;PMS_P1;PMS_P2;Temp;Humidity;BMP_temperature;BMP_pressure;BME280_temperature;BME280_humidity;BME280_pressure;Samples;Min_cycle;Max_cycle;Signal;HPM_P1;HPM_P2
2021/06/26 00:00:10;;;;;;;1.17;0.95;;;16.30;80.30;;;;;;5060003;28;20478;-75
2021/06/26 00:02:37;;;;;;;1.33;1.10;;;16.30;80.30;;;;;;5075808;28;20064;-75
2021/06/26 00:05:03;;;;;;;1.25;1.13;;;16.30;80.40;;;;;;5060932;28;20040;-74
2021/06/26 00:07:29;;;;;;;1.55;1.17;;;16.30;80.50;;;;;;5075140;28;20437;-76
2021/06/26 00:09:55;;;;;;;1.20;1.10;;;16.40;80.60;;;;;;5079419;28;20044;-77
2021/06/26 00:12:20;;;;;;;1.75;1.30;;;16.30;80.50;;;;;;5060400;28;20183;-75
2021/06/26 00:14:46;;;;;;;1.95;1.20;;;16.30;80.60;;;;;;5043624;28;20028;-75
2021/06/26 00:17:12;;;;;;;1.25;1.02;;;16.20;80.60;;;;;;5077844;28;20041;-76
2021/06/26 00:19:38;;;;;;;1.05;0.93;;;16.20;80.60;;;;;;5061926;28;20033;-77
2021/06/26 00:22:05;;;;;;;1.67;1.08;;;16.10;80.70;;;;;;5044957;28;20471;-74
2021/06/26 00:24:30;;;;;;;1.30;1.20;;;16.10;80.80;;;;;;5076589;28;20040;-77
2021/06/26 00:26:56;;;;;;;1.33;1.00;;;16.00;80.80;;;;;;5062858;28;20498;-74
2021/06/26 00:29:22;;;;;;;1.10;1.00;;;16.00;80.80;;;;;;5056085;28;20060;-74
2021/06/26 00:31:47;;;;;;;0.73;0.73;;;16.00;80.90;;;;;;5055360;28;20036;-74
2021/06/26 00:34:13;;;;;;;1.60;1.10;;;16.00;80.90;;;;;;5038759;28;20406;-74
2021/06/26 00:36:39;;;;;;;1.40;1.10;;;15.90;80.90;;;;;;5055580;28;20044;-74
2021/06/26 00:39:05;;;;;;;1.50;1.20;;;15.90;81.00;;;;;;5039117;28;20048;-74
2021/06/26 00:41:31;;;;;;;1.63;1.30;;;15.90;81.00;;;;;;5038475;28;20569;-74
2021/06/26 00:43:57;;;;;;;1.73;1.30;;;15.90;81.10;;;;;;5055040;28;20132;-74
2021/06/26 00:46:22;;;;;;;1.15;1.05;;;15.80;81.10;;;;;;5073120;28;20068;-75
2021/06/26 00:48:48;;;;;;;1.67;1.30;;;15.80;81.20;;;;;;5059898;28;20033;-75
2021/06/26 00:51:14;;;;;;;1.38;1.20;;;15.70;81.20;;;;;;5058720;28;20048;-75
2021/06/26 00:53:40;;;;;;;1.95;1.45;;;15.70;81.30;;;;;;5043158;28;20068;-75
2021/06/26 00:56:08;;;;;;;1.92;1.48;;;15.70;81.30;;;;;;5059952;28;20036;-75
2021/06/26 00:58:34;;;;;;;2.20;1.42;;;15.70;81.30;;;;;;5060653;28;20044;-75
2021/06/26 01:01:00;;;;;;;1.35;1.20;;;15.70;81.40;;;;;;5080848;28;20077;-75
2021/06/26 01:03:25;;;;;;;1.85;1.30;;;15.70;81.40;;;;;;5079494;28;20494;-75
2021/06/26 01:05:51;;;;;;;1.48;1.20;;;15.60;81.40;;;;;;5060342;28;20051;-76
2021/06/26 01:08:17;;;;;;;2.25;1.30;;;15.70;81.50;;;;;;5059190;28;20067;-76
2021/06/26 01:10:43;;;;;;;1.85;1.25;;;15.60;81.40;;;;;;5058996;28;20043;-75
2021/06/26 01:13:09;;;;;;;1.98;1.30;;;15.60;81.50;;;;;;5058377;28;20483;-75
2021/06/26 01:15:35;;;;;;;2.25;1.48;;;15.60;81.50;;;;;;5059785;28;20066;-75
2021/06/26 01:18:01;;;;;;;1.85;1.50;;;15.60;81.50;;;;;;5043333;28;20045;-75
2021/06/26 01:20:29;;;;;;;1.60;1.13;;;15.60;81.50;;;;;;5043447;28;20108;-75
2021/06/26 01:22:58;;;;;;;1.83;1.33;;;15.50;81.60;;;;;;5060381;28;20049;-75
2021/06/26 01:25:25;;;;;;;1.25;1.15;;;15.50;81.60;;;;;;5059417;28;20045;-75
2021/06/26 01:27:51;;;;;;;1.40;0.95;;;15.50;81.70;;;;;;5042075;28;20048;-75
2021/06/26 01:30:26;;;;;;;1.15;0.95;;;15.50;81.70;;;;;;5075486;28;20033;-75
2021/06/26 01:32:52;;;;;;;1.08;0.90;;;15.40;81.70;;;;;;5076664;28;20056;-75
2021/06/26 01:35:17;;;;;;;1.50;1.10;;;15.40;81.70;;;;;;5041622;28;20056;-76
2021/06/26 01:37:43;;;;;;;1.27;1.00;;;15.50;81.60;;;;;;5076154;28;20044;-74
2021/06/26 01:40:14;;;;;;;1.52;1.00;;;15.40;81.60;;;;;;5075925;28;20113;-75
2021/06/26 01:42:40;;;;;;;2.53;1.55;;;15.40;81.70;;;;;;5075928;28;20064;-75
2021/06/26 01:45:06;;;;;;;1.63;1.02;;;15.40;81.80;;;;;;5058139;28;20037;-75
2021/06/26 01:47:32;;;;;;;2.25;1.58;;;15.40;81.80;;;;;;5040978;28;20479;-75
2021/06/26 01:49:58;;;;;;;2.15;1.38;;;15.40;81.80;;;;;;5075435;28;20127;-75
2021/06/26 01:52:23;;;;;;;2.38;1.70;;;15.40;81.80;;;;;;5057464;28;20032;-75
2021/06/26 01:54:49;;;;;;;1.60;1.15;;;15.40;81.90;;;;;;5057129;28;20047;-75
2021/06/26 01:57:15;;;;;;;2.08;1.40;;;15.30;81.80;;;;;;5024447;28;20447;-75
2021/06/26 01:59:41;;;;;;;1.75;1.20;;;15.30;81.90;;;;;;5057764;28;20039;-75
2021/06/26 02:02:07;;;;;;;1.45;1.08;;;15.30;81.90;;;;;;5058839;28;20067;-75
2021/06/26 02:04:33;;;;;;;1.85;1.23;;;15.30;81.90;;;;;;5058611;28;20071;-75
2021/06/26 02:06:59;;;;;;;1.77;1.40;;;15.30;81.90;;;;;;5076135;28;20063;-75
2021/06/26 02:09:25;;;;;;;1.77;1.30;;;15.30;81.90;;;;;;5057241;28;20143;-75
2021/06/26 02:11:51;;;;;;;2.00;1.30;;;15.30;82.00;;;;;;5057313;28;20045;-75
2021/06/26 02:14:17;;;;;;;1.33;0.98;;;15.20;82.00;;;;;;5058235;28;20043;-76
2021/06/26 02:16:42;;;;;;;1.35;1.08;;;15.20;82.00;;;;;;5075823;28;20044;-75
2021/06/26 02:19:16;;;;;;;1.70;1.20;;;15.20;82.00;;;;;;5057963;28;20041;-75
2021/06/26 02:21:42;;;;;;;1.38;1.10;;;15.20;82.10;;;;;;5057970;28;20049;-75
2021/06/26 02:24:08;;;;;;;1.73;1.20;;;15.20;82.10;;;;;;5040512;28;20041;-75
2021/06/26 02:26:34;;;;;;;1.73;1.20;;;15.10;82.00;;;;;;5041623;28;20039;-75
2021/06/26 02:28:59;;;;;;;1.60;1.10;;;15.20;82.10;;;;;;5076281;28;20033;-75
2021/06/26 02:31:25;;;;;;;1.00;0.90;;;15.10;82.10;;;;;;5055876;28;20041;-75
2021/06/26 02:33:51;;;;;;;1.45;1.10;;;15.10;82.10;;;;;;5055215;28;20049;-75
2021/06/26 02:36:17;;;;;;;1.10;0.95;;;15.20;82.10;;;;;;5056439;28;20049;-75
2021/06/26 02:38:42;;;;;;;1.58;1.10;;;15.20;82.10;;;;;;5056176;28;20061;-74
2021/06/26 02:41:08;;;;;;;1.38;1.00;;;15.10;82.00;;;;;;5055371;28;20108;-74
2021/06/26 02:43:34;;;;;;;1.10;1.00;;;15.10;82.00;;;;;;5073572;28;20079;-74
2021/06/26 02:46:00;;;;;;;1.00;0.75;;;15.10;82.00;;;;;;5073469;28;20071;-75
2021/06/26 02:48:25;;;;;;;1.77;1.27;;;15.10;82.00;;;;;;5077159;28;20469;-75
2021/06/26 02:50:51;;;;;;;1.17;1.08;;;15.10;82.10;;;;;;5077066;28;20079;-75
2021/06/26 02:53:17;;;;;;;1.48;1.05;;;15.10;82.10;;;;;;5058875;28;20097;-74
2021/06/26 02:55:43;;;;;;;1.55;1.30;;;15.00;82.80;;;;;;5076599;28;20419;-74
2021/06/26 02:58:08;;;;;;;1.80;1.20;;;15.00;82.20;;;;;;5059497;28;20099;-74
2021/06/26 03:00:34;;;;;;;1.83;1.30;;;15.00;82.20;;;;;;5058678;28;20101;-74
2021/06/26 03:03:01;;;;;;;2.08;1.33;;;15.00;82.30;;;;;;5057813;28;20059;-74
2021/06/26 03:05:26;;;;;;;2.47;1.40;;;15.00;82.30;;;;;;5057803;28;20045;-74
2021/06/26 03:07:56;;;;;;;1.58;1.17;;;15.00;82.30;;;;;;5042507;28;20028;-74
2021/06/26 03:10:22;;;;;;;1.88;1.13;;;15.00;82.30;;;;;;5042613;28;20067;-74
2021/06/26 03:12:48;;;;;;;2.10;1.40;;;15.10;82.30;;;;;;5060166;28;20044;-74
2021/06/26 03:15:14;;;;;;;1.35;1.13;;;15.00;82.20;;;;;;5059985;28;20045;-74
2021/06/26 03:17:40;;;;;;;1.00;0.90;;;15.10;82.20;;;;;;5059605;28;20040;-75
2021/06/26 03:20:08;;;;;;;1.17;0.85;;;15.10;82.10;;;;;;5077420;28;20047;-74
2021/06/26 03:22:34;;;;;;;1.58;0.98;;;15.10;82.10;;;;;;5076141;28;20402;-74
2021/06/26 03:24:59;;;;;;;1.50;1.15;;;15.10;82.10;;;;;;5043134;28;20036;-74
2021/06/26 03:27:25;;;;;;;1.58;1.30;;;15.20;82.10;;;;;;5076929;28;20094;-74
2021/06/26 03:29:51;;;;;;;1.42;1.02;;;15.20;82.10;;;;;;5059629;28;20073;-74
2021/06/26 03:32:16;;;;;;;0.80;0.73;;;15.20;82.10;;;;;;5058452;28;20051;-74
2021/06/26 03:34:42;;;;;;;1.83;1.25;;;15.10;82.00;;;;;;5077509;28;20032;-75
2021/06/26 03:37:08;;;;;;;1.90;1.10;;;15.20;82.00;;;;;;5078387;28;20047;-75
2021/06/26 03:39:34;;;;;;;1.48;1.10;;;15.30;82.00;;;;;;5059761;28;20044;-74
2021/06/26 03:42:00;;;;;;;1.98;1.30;;;15.30;82.00;;;;;;5059286;28;20398;-74
2021/06/26 03:44:25;;;;;;;1.33;0.95;;;15.30;82.00;;;;;;5043054;28;20041;-74
2021/06/26 03:46:51;;;;;;;1.88;1.33;;;15.40;82.00;;;;;;5077927;28;20036;-74
2021/06/26 03:49:17;;;;;;;2.15;1.48;;;15.40;81.90;;;;;;5074974;28;20111;-74
2021/06/26 03:51:43;;;;;;;1.95;1.15;;;15.40;81.90;;;;;;5058418;28;20037;-74
2021/06/26 03:54:08;;;;;;;1.50;1.15;;;15.50;81.90;;;;;;5059650;28;20044;-74
2021/06/26 03:56:34;;;;;;;1.35;1.00;;;15.50;81.90;;;;;;5077110;28;20105;-74
2021/06/26 03:59:01;;;;;;;1.52;1.13;;;15.50;81.90;;;;;;5078081;28;20048;-74
2021/06/26 04:01:27;;;;;;;1.35;1.00;;;15.50;81.80;;;;;;5058021;28;20072;-75
2021/06/26 04:03:52;;;;;;;1.45;1.20;;;15.50;81.80;;;;;;5043361;28;20094;-75
2021/06/26 04:06:18;;;;;;;1.92;1.25;;;15.60;81.90;;;;;;5044266;28;20066;-75
2021/06/26 04:08:44;;;;;;;1.67;1.23;;;15.60;81.90;;;;;;5058531;28;20045;-75
2021/06/26 04:11:10;;;;;;;1.50;1.15;;;15.60;81.90;;;;;;5043188;28;20112;-75
2021/06/26 04:13:36;;;;;;;1.67;1.27;;;15.70;81.90;;;;;;5076954;28;20115;-75
2021/06/26 04:16:04;;;;;;;1.77;1.13;;;15.70;81.80;;;;;;5041288;28;20040;-74
2021/06/26 04:18:29;;;;;;;2.20;1.30;;;15.80;81.80;;;;;;5076494;28;20045;-75
2021/06/26 04:20:55;;;;;;;1.35;1.25;;;15.80;81.70;;;;;;5025876;28;20047;-74
2021/06/26 04:23:21;;;;;;;2.00;1.40;;;15.90;81.80;;;;;;5058174;28;20530;-74
2021/06/26 04:25:48;;;;;;;2.00;1.25;;;15.90;81.70;;;;;;5059283;28;20513;-75
2021/06/26 04:28:14;;;;;;;1.10;1.00;;;15.90;82.20;;;;;;5076615;28;20099;-75
2021/06/26 04:30:39;;;;;;;2.00;1.40;;;15.90;81.50;;;;;;5058436;28;20032;-75
2021/06/26 04:33:06;;;;;;;2.75;1.38;;;16.00;81.60;;;;;;5059046;28;20047;-74
2021/06/26 04:35:32;;;;;;;2.05;1.27;;;16.00;81.50;;;;;;5058760;28;20513;-74
2021/06/26 04:37:58;;;;;;;1.83;1.25;;;16.00;81.60;;;;;;5076526;28;20037;-74
2021/06/26 04:40:24;;;;;;;1.75;1.27;;;16.00;81.60;;;;;;5057920;28;20053;-74
2021/06/26 04:42:52;;;;;;;2.03;1.40;;;16.10;81.70;;;;;;5075688;28;20044;-74
2021/06/26 04:45:18;;;;;;;2.47;1.60;;;16.10;81.70;;;;;;5041278;28;20487;-74
2021/06/26 04:47:43;;;;;;;1.85;1.20;;;16.20;81.80;;;;;;5057535;28;20119;-74
2021/06/26 04:50:11;;;;;;;1.50;1.40;;;16.20;81.80;;;;;;5057732;28;20063;-75
2021/06/26 04:52:41;;;;;;;2.33;1.40;;;16.20;81.80;;;;;;5075003;28;20070;-75
2021/06/26 04:55:08;;;;;;;2.67;1.80;;;16.20;81.80;;;;;;4998210;28;20041;-76
2021/06/26 04:57:34;;;;;;;2.70;1.63;;;16.30;81.80;;;;;;5017842;28;20048;-77
2021/06/26 04:59:59;;;;;;;2.08;1.40;;;16.30;81.70;;;;;;5017732;28;20041;-77
2021/06/26 05:02:25;;;;;;;3.28;1.85;;;16.40;81.80;;;;;;5034100;28;20079;-77
2021/06/26 05:04:51;;;;;;;2.03;1.58;;;16.40;81.90;;;;;;5000637;28;20101;-77
2021/06/26 05:07:16;;;;;;;1.98;1.40;;;16.40;81.80;;;;;;5018639;28;20152;-77
2021/06/26 05:09:42;;;;;;;3.08;1.55;;;16.50;81.90;;;;;;5033691;28;20404;-76
2021/06/26 05:12:08;;;;;;;2.72;1.58;;;16.40;81.80;;;;;;5016381;28;20168;-77
2021/06/26 05:14:34;;;;;;;1.70;1.30;;;16.50;81.90;;;;;;5033220;28;20040;-77
2021/06/26 05:16:59;;;;;;;1.77;1.27;;;16.50;81.90;;;;;;5016013;28;20141;-77
2021/06/26 05:19:25;;;;;;;2.00;1.60;;;16.60;81.80;;;;;;5015797;28;20435;-77
2021/06/26 05:21:51;;;;;;;1.63;1.33;;;16.60;81.80;;;;;;5015801;28;20041;-77
2021/06/26 05:24:16;;;;;;;1.33;1.13;;;16.60;81.70;;;;;;5031317;28;20057;-77
2021/06/26 05:26:43;;;;;;;1.95;1.42;;;16.80;81.70;;;;;;5062566;28;20106;-77
2021/06/26 05:29:08;;;;;;;1.75;1.30;;;16.80;81.60;;;;;;5070145;28;20055;-74
2021/06/26 05:31:34;;;;;;;1.77;1.30;;;16.80;82.20;;;;;;5072150;28;20041;-74
2021/06/26 05:34:00;;;;;;;1.33;1.00;;;16.80;81.50;;;;;;5038481;28;20094;-77
2021/06/26 05:36:26;;;;;;;2.45;1.67;;;16.90;81.50;;;;;;5054885;28;20383;-77
2021/06/26 05:38:52;;;;;;;2.15;1.50;;;16.90;81.50;;;;;;5054556;28;20045;-77
2021/06/26 05:41:17;;;;;;;2.42;1.60;;;17.10;81.60;;;;;;5054362;28;20049;-77
2021/06/26 05:43:43;;;;;;;1.95;1.40;;;17.00;81.50;;;;;;5072632;28;20047;-78
2021/06/26 05:46:10;;;;;;;2.08;1.60;;;17.00;81.50;;;;;;5072116;28;20040;-77
2021/06/26 05:48:36;;;;;;;1.73;1.20;;;17.00;81.50;;;;;;5072203;28;20367;-77
2021/06/26 05:51:02;;;;;;;2.15;1.48;;;17.00;81.60;;;;;;5072097;28;20041;-77
2021/06/26 05:53:28;;;;;;;1.33;1.13;;;17.10;81.70;;;;;;5071709;28;20040;-77
2021/06/26 05:55:57;;;;;;;2.30;1.08;;;17.10;81.60;;;;;;5054106;28;20123;-76
2021/06/26 05:58:27;;;;;;;1.85;1.30;;;17.10;81.60;;;;;;5054077;28;20040;-77
2021/06/26 06:00:53;;;;;;;2.45;1.45;;;17.20;81.60;;;;;;5054885;28;20504;-77
2021/06/26 06:03:20;;;;;;;2.17;1.40;;;17.20;81.50;;;;;;5053357;28;20116;-77
2021/06/26 06:05:47;;;;;;;2.88;1.75;;;17.30;81.60;;;;;;5054074;28;20036;-77
2021/06/26 06:08:14;;;;;;;2.28;1.50;;;17.30;81.50;;;;;;5069050;28;20399;-77
2021/06/26 06:10:40;;;;;;;2.55;1.60;;;17.20;81.40;;;;;;5070342;28;20037;-77
2021/06/26 06:13:11;;;;;;;2.70;1.67;;;17.30;81.40;;;;;;5053602;28;20112;-77
2021/06/26 06:15:37;;;;;;;2.05;1.42;;;17.40;81.50;;;;;;5061536;28;20048;-78
2021/06/26 06:18:03;;;;;;;1.65;1.30;;;17.40;81.40;;;;;;5068919;28;20077;-78
2021/06/26 06:20:28;;;;;;;1.48;1.30;;;17.50;81.40;;;;;;5069911;28;20049;-77
2021/06/26 06:22:54;;;;;;;2.17;1.50;;;17.50;81.30;;;;;;5089411;28;20048;-78
2021/06/26 06:25:20;;;;;;;3.38;2.03;;;17.70;81.20;;;;;;5073250;28;20049;-77
2021/06/26 06:27:46;;;;;;;3.22;1.95;;;17.80;81.00;;;;;;5095361;28;20530;-78
2021/06/26 06:30:12;;;;;;;2.53;1.83;;;17.90;80.90;;;;;;5075500;28;20056;-79
2021/06/26 06:32:38;;;;;;;3.50;2.10;;;18.10;80.70;;;;;;5091892;28;20040;-77
2021/06/26 06:35:05;;;;;;;3.67;2.00;;;18.30;80.40;;;;;;5094632;28;20039;-77
2021/06/26 06:37:31;;;;;;;3.00;1.95;;;18.50;80.10;;;;;;5092956;28;20068;-77
2021/06/26 06:39:56;;;;;;;3.88;2.25;;;18.70;79.70;;;;;;5090260;28;20044;-76
2021/06/26 06:42:22;;;;;;;3.83;2.45;;;18.70;79.40;;;;;;5074663;28;20048;-77
2021/06/26 06:44:48;;;;;;;3.47;2.30;;;18.90;79.20;;;;;;5091539;28;20059;-77
2021/06/26 06:47:13;;;;;;;3.22;2.03;;;19.00;78.80;;;;;;5087008;28;20062;-77
2021/06/26 06:49:39;;;;;;;1.88;1.58;;;19.10;78.70;;;;;;5076113;28;20027;-77
2021/06/26 06:52:05;;;;;;;2.85;2.00;;;19.20;78.60;;;;;;5075296;28;20096;-77
2021/06/26 06:54:31;;;;;;;2.90;2.10;;;19.30;78.50;;;;;;5093682;28;20041;-77
2021/06/26 06:56:57;;;;;;;3.80;2.00;;;19.30;78.40;;;;;;5094679;28;20049;-77
2021/06/26 06:59:22;;;;;;;3.63;1.92;;;19.60;78.20;;;;;;5092737;28;20046;-77
2021/06/26 07:01:48;;;;;;;3.70;2.10;;;19.70;78.10;;;;;;5095954;28;20043;-76
2021/06/26 07:04:14;;;;;;;2.97;1.92;;;19.80;77.90;;;;;;5090696;28;20029;-77
2021/06/26 07:06:40;;;;;;;3.10;1.73;;;19.80;77.70;;;;;;5093124;28;20070;-77
2021/06/26 07:09:05;;;;;;;2.10;1.45;;;19.90;77.70;;;;;;5074148;28;20041;-78
2021/06/26 07:11:31;;;;;;;2.70;1.98;;;20.10;77.80;;;;;;5093511;28;20086;-77
2021/06/26 07:13:57;;;;;;;1.77;1.40;;;20.20;77.60;;;;;;5075711;28;20055;-78
2021/06/26 07:16:23;;;;;;;2.25;1.70;;;20.40;77.40;;;;;;5052622;28;20033;-77
2021/06/26 07:18:48;;;;;;;2.03;1.48;;;20.60;77.10;;;;;;5053073;28;20112;-76
2021/06/26 07:21:14;;;;;;;2.92;2.00;;;20.70;76.90;;;;;;5075032;28;20075;-76
2021/06/26 07:23:40;;;;;;;2.53;1.60;;;20.90;76.60;;;;;;5079077;28;20044;-76
2021/06/26 07:26:06;;;;;;;2.38;1.67;;;21.20;76.40;;;;;;5056917;28;20059;-76
2021/06/26 07:28:31;;;;;;;2.75;1.77;;;21.30;76.20;;;;;;5050509;28;20058;-76
2021/06/26 07:30:57;;;;;;;2.42;1.60;;;21.40;76.00;;;;;;5048129;28;20047;-76
2021/06/26 07:33:23;;;;;;;1.70;1.40;;;21.60;75.80;;;;;;5078726;28;20091;-76
2021/06/26 07:35:48;;;;;;;1.98;1.45;;;21.70;75.60;;;;;;5081801;28;20044;-77
2021/06/26 07:38:14;;;;;;;2.63;1.80;;;21.90;75.60;;;;;;5062407;28;20090;-76
2021/06/26 07:40:40;;;;;;;4.25;2.15;;;22.00;75.40;;;;;;5080055;28;20391;-77
2021/06/26 07:43:05;;;;;;;1.52;1.42;;;22.10;75.20;;;;;;5063135;28;20051;-76
2021/06/26 07:45:31;;;;;;;1.77;1.48;;;22.30;75.10;;;;;;5064395;28;20064;-76
2021/06/26 07:47:57;;;;;;;1.50;1.27;;;22.40;75.00;;;;;;5079165;28;20394;-76
2021/06/26 07:50:23;;;;;;;1.45;1.30;;;22.50;75.00;;;;;;5063262;28;20506;-76
2021/06/26 07:52:48;;;;;;;1.50;1.40;;;22.60;74.90;;;;;;5082469;28;20040;-77
2021/06/26 07:55:14;;;;;;;2.58;1.67;;;22.70;74.80;;;;;;5076863;28;20083;-78
2021/06/26 07:57:40;;;;;;;2.30;1.45;;;22.80;74.50;;;;;;5076159;28;20048;-77
2021/06/26 08:00:07;;;;;;;2.08;1.42;;;23.00;74.40;;;;;;5057706;28;20060;-77
2021/06/26 08:02:33;;;;;;;2.15;1.65;;;23.10;74.30;;;;;;5076612;28;20068;-77
2021/06/26 08:04:59;;;;;;;1.67;1.38;;;23.20;74.00;;;;;;5056055;28;20078;-77
2021/06/26 08:07:25;;;;;;;2.08;1.52;;;23.40;73.90;;;;;;5055473;28;20491;-77
2021/06/26 08:09:50;;;;;;;1.88;1.63;;;23.50;73.80;;;;;;5074308;28;20041;-77
2021/06/26 08:12:17;;;;;;;2.92;1.90;;;23.60;73.50;;;;;;5023027;28;20093;-77
2021/06/26 08:14:44;;;;;;;2.30;1.73;;;23.80;73.40;;;;;;5074062;28;20123;-74
2021/06/26 08:17:11;;;;;;;2.65;1.95;;;23.80;73.10;;;;;;5020808;28;20495;-74
2021/06/26 08:19:37;;;;;;;2.03;1.60;;;24.00;73.10;;;;;;5070501;28;20053;-74
2021/06/26 08:22:05;;;;;;;2.67;1.92;;;24.10;73.10;;;;;;5055552;28;20093;-76
2021/06/26 08:24:32;;;;;;;3.95;2.10;;;24.10;73.10;;;;;;5073426;28;20044;-75
2021/06/26 08:26:59;;;;;;;2.92;1.80;;;24.20;73.10;;;;;;5073377;28;20036;-75
2021/06/26 08:29:25;;;;;;;2.15;1.95;;;24.40;73.00;;;;;;5073377;28;20041;-74
2021/06/26 08:31:50;;;;;;;2.20;1.80;;;24.60;72.70;;;;;;5073470;28;20086;-74
2021/06/26 08:34:16;;;;;;;2.05;1.73;;;24.70;72.40;;;;;;5055162;28;20048;-74
2021/06/26 08:36:42;;;;;;;1.88;1.55;;;24.80;72.20;;;;;;5055257;28;20040;-76
2021/06/26 08:39:07;;;;;;;2.17;1.73;;;24.90;72.10;;;;;;5076790;28;20044;-77
2021/06/26 08:41:40;;;;;;;2.05;1.58;;;25.10;72.20;;;;;;5040737;28;20076;-77
2021/06/26 08:44:07;;;;;;;2.85;2.10;;;25.10;71.90;;;;;;5075629;28;20521;-77
2021/06/26 08:46:38;;;;;;;2.08;1.73;;;25.20;71.60;;;;;;5074970;28;20040;-77
2021/06/26 08:49:03;;;;;;;1.83;1.65;;;25.30;71.40;;;;;;5073151;28;20097;-74
2021/06/26 08:51:29;;;;;;;1.67;1.48;;;25.40;71.50;;;;;;5072687;28;20040;-74
2021/06/26 08:53:55;;;;;;;1.92;1.55;;;25.50;71.40;;;;;;5052959;28;20083;-75
2021/06/26 08:56:20;;;;;;;1.75;1.50;;;25.60;71.20;;;;;;5072631;28;20042;-75
2021/06/26 08:58:46;;;;;;;2.30;1.58;;;25.70;71.10;;;;;;5053589;28;20072;-76
2021/06/26 09:01:12;;;;;;;1.67;1.40;;;25.80;70.90;;;;;;5073922;28;20040;-76
2021/06/26 09:03:38;;;;;;;2.30;1.77;;;25.90;71.30;;;;;;5072179;28;20131;-76
2021/06/26 09:06:06;;;;;;;1.70;1.52;;;26.00;70.70;;;;;;5038021;28;20063;-76
2021/06/26 09:08:33;;;;;;;2.03;1.75;;;26.00;70.60;;;;;;5054769;28;20074;-75
2021/06/26 09:10:59;;;;;;;2.20;1.80;;;26.20;70.40;;;;;;5073079;28;20048;-75
2021/06/26 09:13:28;;;;;;;1.67;1.58;;;26.30;70.20;;;;;;5072242;28;20033;-76
2021/06/26 09:16:11;;;;;;;1.83;1.67;;;26.30;70.00;;;;;;5071053;28;20044;-75
2021/06/26 09:18:47;;;;;;;2.42;1.50;;;26.50;69.80;;;;;;5071415;28;21926;-75
2021/06/26 09:21:18;;;;;;;1.88;1.60;;;26.50;69.70;;;;;;5054857;28;20044;-75
2021/06/26 09:23:44;;;;;;;1.70;1.60;;;26.60;69.70;;;;;;5052357;28;20399;-75
2021/06/26 09:26:11;;;;;;;1.60;1.50;;;26.70;69.40;;;;;;5054550;28;20033;-75
2021/06/26 09:28:39;;;;;;;2.05;1.60;;;26.90;69.20;;;;;;5053526;28;20049;-75
2021/06/26 09:31:13;;;;;;;1.77;1.52;;;27.00;68.90;;;;;;5072180;28;20398;-76
2021/06/26 09:33:39;;;;;;;2.00;1.77;;;27.00;68.50;;;;;;5054242;28;20521;-75
2021/06/26 09:36:09;;;;;;;2.58;1.90;;;27.10;68.70;;;;;;5054299;28;20040;-76
2021/06/26 09:38:53;;;;;;;2.33;1.80;;;27.00;68.80;;;;;;5072198;28;20072;-76
2021/06/26 09:41:18;;;;;;;2.15;1.65;;;27.00;69.00;;;;;;5039816;28;20049;-76
2021/06/26 09:43:44;;;;;;;1.98;1.63;;;27.10;68.70;;;;;;5072224;28;20478;-76
2021/06/26 09:46:13;;;;;;;2.10;1.80;;;26.90;68.80;;;;;;5037460;28;20453;-76
2021/06/26 09:48:55;;;;;;;2.28;1.83;;;27.00;68.80;;;;;;5070636;28;20510;-75
2021/06/26 09:51:27;;;;;;;1.67;1.52;;;27.10;68.60;;;;;;5054001;28;20462;-75
2021/06/26 09:54:01;;;;;;;3.17;1.98;;;27.20;68.30;;;;;;5053801;28;20051;-76
2021/06/26 09:56:44;;;;;;;2.78;2.03;;;27.30;68.00;;;;;;5072734;28;20059;-76
2021/06/26 09:59:13;;;;;;;3.05;1.92;;;27.50;67.70;;;;;;5056917;28;20045;-75
2021/06/26 10:01:43;;;;;;;2.60;2.03;;;27.50;67.40;;;;;;5076404;28;20040;-75
2021/06/26 10:04:16;;;;;;;2.03;1.73;;;27.70;67.10;;;;;;5057989;28;20040;-75
2021/06/26 10:06:43;;;;;;;1.83;1.60;;;27.80;66.70;;;;;;5076087;28;20056;-76
2021/06/26 10:09:10;;;;;;;1.80;1.60;;;27.80;66.70;;;;;;5075660;28;20037;-77
2021/06/26 10:11:37;;;;;;;2.03;1.77;;;27.80;66.80;;;;;;5057431;28;20036;-75
2021/06/26 10:14:06;;;;;;;2.40;1.90;;;27.90;66.90;;;;;;5075104;28;20489;-75
2021/06/26 10:16:32;;;;;;;2.53;2.10;;;27.80;66.60;;;;;;5075053;28;20041;-74
2021/06/26 10:19:01;;;;;;;2.13;1.90;;;27.90;66.50;;;;;;5057720;28;20106;-74
2021/06/26 10:21:28;;;;;;;2.10;1.77;;;28.00;66.30;;;;;;5057050;28;20044;-75
2021/06/26 10:23:56;;;;;;;2.10;1.75;;;28.10;66.10;;;;;;5075032;28;20090;-76
2021/06/26 10:26:23;;;;;;;3.33;2.08;;;28.00;66.00;;;;;;5074760;28;20036;-75
2021/06/26 10:28:51;;;;;;;3.00;2.15;;;27.90;66.00;;;;;;5074907;28;20048;-76
2021/06/26 10:31:36;;;;;;;2.72;2.15;;;27.70;66.20;;;;;;5056991;28;20040;-76
2021/06/26 10:34:19;;;;;;;2.97;2.28;;;27.50;66.30;;;;;;5074882;28;20044;-75
2021/06/26 10:36:54;;;;;;;3.83;2.10;;;27.50;66.60;;;;;;5074520;28;20119;-75
2021/06/26 10:39:26;;;;;;;2.90;2.10;;;27.50;66.60;;;;;;5075228;28;20462;-75
2021/06/26 10:42:10;;;;;;;1.70;1.60;;;27.60;66.30;;;;;;5074998;28;20093;-76
2021/06/26 10:44:43;;;;;;;3.00;2.20;;;27.70;65.70;;;;;;5074973;28;20124;-75
2021/06/26 10:47:10;;;;;;;2.40;2.00;;;27.70;65.40;;;;;;5074792;28;20099;-75
2021/06/26 10:49:36;;;;;;;2.15;1.80;;;27.60;65.70;;;;;;5075167;28;20064;-75
2021/06/26 10:52:19;;;;;;;2.15;1.95;;;27.60;65.50;;;;;;5074667;28;20072;-75
2021/06/26 10:54:57;;;;;;;2.67;2.03;;;27.50;65.40;;;;;;5056905;28;20047;-75
2021/06/26 10:57:25;;;;;;;2.20;1.80;;;27.40;65.30;;;;;;5040185;28;20051;-76
2021/06/26 10:59:57;;;;;;;2.70;2.25;;;27.40;65.50;;;;;;5057103;28;20509;-76
2021/06/26 11:02:23;;;;;;;2.67;2.17;;;27.40;65.10;;;;;;5056862;28;20045;-77
2021/06/26 11:04:49;;;;;;;2.38;1.90;;;27.50;64.90;;;;;;5039797;28;20071;-76
2021/06/26 11:07:16;;;;;;;3.90;2.20;;;27.60;64.70;;;;;;5073865;28;20037;-76
2021/06/26 11:09:46;;;;;;;2.50;2.10;;;27.70;64.20;;;;;;5040246;28;20040;-76
2021/06/26 11:12:16;;;;;;;2.35;2.00;;;27.60;64.00;;;;;;5054886;28;20045;-76
2021/06/26 11:14:52;;;;;;;2.00;1.67;;;27.50;64.20;;;;;;5040766;28;20040;-76
2021/06/26 11:17:22;;;;;;;2.17;1.90;;;27.50;64.20;;;;;;5056423;28;20043;-76
2021/06/26 11:19:48;;;;;;;2.17;1.73;;;27.40;64.30;;;;;;5074580;28;20055;-75
2021/06/26 11:22:14;;;;;;;2.45;1.80;;;27.50;64.00;;;;;;5073228;28;20353;-75
2021/06/26 11:24:43;;;;;;;2.22;1.80;;;27.60;63.60;;;;;;5054272;28;20376;-75
2021/06/26 11:27:13;;;;;;;1.92;1.67;;;27.60;63.40;;;;;;5056051;28;20517;-75
2021/06/26 11:29:40;;;;;;;;;;;27.60;63.30;;;;;;5024111;28;20093;-76
2021/06/26 11:32:19;;;;;;;2.50;1.92;;;27.70;63.20;;;;;;5039448;28;19927;-76
2021/06/26 11:35:03;;;;;;;1.90;1.70;;;27.80;62.80;;;;;;5072843;28;20048;-76
2021/06/26 11:37:36;;;;;;;2.33;1.83;;;27.60;62.80;;;;;;5073180;28;20501;-76
2021/06/26 11:40:16;;;;;;;2.80;1.85;;;27.40;63.30;;;;;;5073912;28;20490;-77
2021/06/26 11:42:52;;;;;;;2.35;1.70;;;27.40;63.20;;;;;;5073782;28;20048;-76
2021/06/26 11:45:20;;;;;;;2.13;1.70;;;27.50;63.10;;;;;;5039174;28;20037;-76
2021/06/26 11:47:46;;;;;;;2.25;1.80;;;27.60;62.80;;;;;;5056294;28;20040;-76
2021/06/26 11:50:13;;;;;;;1.90;1.70;;;27.60;62.60;;;;;;5073905;28;20097;-76
2021/06/26 11:52:39;;;;;;;2.30;1.83;;;27.60;62.50;;;;;;5072348;28;20032;-76
2021/06/26 11:55:06;;;;;;;1.70;1.60;;;27.60;62.30;;;;;;5055845;28;20032;-76
2021/06/26 11:57:32;;;;;;;2.85;1.77;;;27.70;62.00;;;;;;5074447;28;20106;-75
2021/06/26 11:59:57;;;;;;;1.92;1.70;;;27.60;61.70;;;;;;5055909;28;20491;-75
2021/06/26 12:02:31;;;;;;;1.88;1.70;;;27.70;61.30;;;;;;5055741;28;20059;-75
2021/06/26 12:04:57;;;;;;;2.40;1.80;;;27.80;61.20;;;;;;5073361;28;20048;-75
2021/06/26 12:07:34;;;;;;;2.17;1.88;;;27.80;61.20;;;;;;5054975;28;20041;-76
2021/06/26 12:10:01;;;;;;;2.65;2.03;;;27.90;61.00;;;;;;5073494;28;20093;-75
2021/06/26 12:12:32;;;;;;;2.42;1.77;;;28.00;60.90;;;;;;5056422;28;20382;-77
2021/06/26 12:14:58;;;;;;;2.72;1.88;;;28.00;60.70;;;;;;5073687;28;20052;-78
2021/06/26 12:17:23;;;;;;;2.03;1.83;;;28.10;60.30;;;;;;5055460;28;20402;-79
2021/06/26 12:19:49;;;;;;;2.15;1.95;;;28.20;60.00;;;;;;5055708;28;20378;-78
2021/06/26 12:22:22;;;;;;;2.30;2.03;;;28.30;59.80;;;;;;5055399;28;20133;-78
2021/06/26 12:24:48;;;;;;;2.38;1.92;;;28.10;59.80;;;;;;5055610;28;20051;-78
2021/06/26 12:27:20;;;;;;;3.20;2.00;;;28.10;60.10;;;;;;5055514;28;20044;-78
2021/06/26 12:29:55;;;;;;;2.38;1.90;;;28.00;60.10;;;;;;5039014;28;20060;-78
2021/06/26 12:32:26;;;;;;;2.58;1.80;;;27.90;60.20;;;;;;5055184;28;20413;-78
2021/06/26 12:34:53;;;;;;;2.22;1.98;;;28.00;60.30;;;;;;5073157;28;20068;-79
2021/06/26 12:37:27;;;;;;;1.73;1.50;;;27.90;60.10;;;;;;5072939;28;20098;-79
2021/06/26 12:40:05;;;;;;;3.15;2.30;;;27.80;60.20;;;;;;5053214;28;20092;-79
2021/06/26 12:42:32;;;;;;;3.08;2.10;;;27.70;60.60;;;;;;5072859;28;20502;-79
2021/06/26 12:44:57;;;;;;;3.58;2.05;;;27.60;60.60;;;;;;5072639;28;20063;-78
2021/06/26 12:47:23;;;;;;;2.78;2.10;;;27.50;60.60;;;;;;5072723;28;20032;-78